Time;durP1;ratioP1;P1;durP2;ratioP2;P2;SDS_P1;SDS_P2;PMS_P1;PMS_P2;Temp;Humidity;BMP_temperature;BMP_pressure;BME280_temperature;BME280_humidity;BME280_pressure;Samples;Min_cycle;Max_cycle;Signal;HPM_P1;HPM_P2
2022/05/29 00:00:39;;;;;;;7.18;3.17;;;;;;;8.96;78.17;101820.03;4970903;28;20065;-77
2022/05/29 00:03:04;;;;;;;6.65;3.55;;;;;;;8.94;78.05;101814.84;4969910;28;20121;-76
2022/05/29 00:05:30;;;;;;;7.95;3.10;;;;;;;8.91;78.13;101817.47;4977013;28;20042;-77
2022/05/29 00:07:56;;;;;;;8.52;3.72;;;;;;;8.91;78.85;101814.00;4968061;28;20038;-77
2022/05/29 00:10:22;;;;;;;8.98;3.58;;;;;;;8.90;79.52;101809.69;4969049;28;20031;-76
2022/05/29 00:12:47;;;;;;;7.55;3.10;;;;;;;8.86;78.89;101800.25;4975954;28;20034;-77
2022/05/29 00:15:13;;;;;;;6.03;3.23;;;;;;;8.87;79.39;101807.97;4974290;28;20037;-76
2022/05/29 00:17:38;;;;;;;7.95;3.30;;;;;;;8.83;79.00;101797.66;4961921;28;20273;-77
2022/05/29 00:20:05;;;;;;;8.13;3.10;;;;;;;8.88;80.23;101806.25;4969931;28;20343;-81
2022/05/29 00:22:31;;;;;;;7.10;3.00;;;;;;;8.87;79.92;101792.47;4970994;28;20437;-81
2022/05/29 00:24:57;;;;;;;7.57;3.20;;;;;;;8.90;79.47;101802.81;4970937;28;20034;-81
2022/05/29 00:27:23;;;;;;;9.65;3.13;;;;;;;8.89;79.06;101792.47;4967812;28;20053;-81
2022/05/29 00:29:49;;;;;;;6.15;3.05;;;;;;;9.01;80.62;101801.06;4965269;28;20023;-81
2022/05/29 00:32:16;;;;;;;10.82;3.13;;;;;;;9.04;79.32;101788.13;4971863;28;20035;-81
2022/05/29 00:34:41;;;;;;;6.63;3.50;;;;;;;9.11;80.47;101791.56;4978043;28;20073;-81
2022/05/29 00:37:09;;;;;;;8.73;3.10;;;;;;;9.16;78.78;101789.81;4971653;28;20035;-81
2022/05/29 00:39:35;;;;;;;9.35;2.85;;;;;;;9.20;78.95;101781.19;4970067;28;20034;-81
2022/05/29 00:42:10;;;;;;;8.43;3.10;;;;;;;9.27;80.58;101782.03;4978996;28;20045;-81
2022/05/29 00:44:36;;;;;;;9.20;3.15;;;;;;;9.29;79.94;101783.75;4977022;28;20037;-81
2022/05/29 00:47:18;;;;;;;10.20;3.30;;;;;;;9.33;80.18;101780.28;4971003;28;20034;-81
2022/05/29 00:49:45;;;;;;;7.85;3.60;;;;;;;9.37;79.83;101770.78;4970069;28;20568;-81
2022/05/29 00:52:16;;;;;;;6.50;2.95;;;;;;;9.39;79.06;101771.66;4971420;28;20026;-81
2022/05/29 00:54:55;;;;;;;7.53;3.20;;;;;;;9.45;80.26;101777.66;4968456;28;20082;-81
2022/05/29 00:57:30;;;;;;;9.50;3.17;;;;;;;9.45;79.78;101766.44;4959810;28;20049;-77
2022/05/29 01:00:00;;;;;;;6.60;3.00;;;;;;;9.47;79.45;101768.16;4970282;28;20036;-76
2022/05/29 01:02:25;;;;;;;12.18;3.05;;;;;;;9.48;79.94;101761.25;4968772;28;20023;-76
2022/05/29 01:04:51;;;;;;;10.07;3.42;;;;;;;9.46;78.51;101770.75;4973097;28;20027;-77
2022/05/29 01:07:19;;;;;;;10.50;3.60;;;;;;;9.49;80.26;101757.78;4968577;28;20057;-76
2022/05/29 01:09:47;;;;;;;11.07;3.47;;;;;;;9.49;80.38;101753.47;4971073;28;20277;-76
2022/05/29 01:12:45;;;;;;;10.88;3.28;;;;;;;9.52;80.11;101756.06;4958343;28;20034;-77
2022/05/29 01:15:53;;;;;;;9.43;3.58;;;;;;;9.56;79.85;101758.59;4967499;28;20117;-77
2022/05/29 01:18:51;;;;;;;9.18;3.63;;;;;;;9.55;79.50;101746.56;4957686;28;20030;-77
2022/05/29 01:21:39;;;;;;;11.10;3.70;;;;;;;9.56;79.53;101754.28;4972381;28;20054;-77
2022/05/29 01:24:15;;;;;;;9.07;3.50;;;;;;;9.58;79.67;101746.53;4977078;28;20033;-77
2022/05/29 01:27:08;;;;;;;6.68;3.63;;;;;;;9.58;79.59;101741.34;4967776;28;20117;-77
2022/05/29 01:29:58;;;;;;;10.80;3.50;;;;;;;9.55;79.68;101746.56;4966373;28;20073;-77
2022/05/29 01:32:37;;;;;;;10.55;3.63;;;;;;;9.50;79.66;101744.84;4953979;28;20532;-77
2022/05/29 01:35:12;;;;;;;8.50;3.60;;;;;;;9.47;80.56;101729.34;4971404;28;20054;-77
2022/05/29 01:37:49;;;;;;;8.55;3.55;;;;;;;9.45;79.85;101737.97;4973136;28;20030;-77
2022/05/29 01:40:39;;;;;;;6.45;3.45;;;;;;;9.44;81.00;101729.34;4983301;28;20497;-77
2022/05/29 01:43:15;;;;;;;8.75;3.67;;;;;;;9.40;80.24;101732.81;4970531;28;20457;-77
2022/05/29 01:45:55;;;;;;;9.80;3.78;;;;;;;9.41;80.57;101731.09;4977725;28;20050;-77
2022/05/29 01:48:31;;;;;;;12.10;3.63;;;;;;;9.42;80.85;101730.22;4973289;28;20074;-76
2022/05/29 01:51:01;;;;;;;9.57;3.90;;;;;;;9.41;80.75;101720.75;4976017;28;20114;-77
2022/05/29 01:53:38;;;;;;;10.55;3.80;;;;;;;9.41;80.21;101720.75;4975933;28;20130;-77
2022/05/29 01:56:21;;;;;;;8.20;3.80;;;;;;;9.42;80.69;101720.72;4971024;28;20094;-77
2022/05/29 01:58:55;;;;;;;10.82;3.95;;;;;;;9.41;79.76;101721.63;4969486;28;20065;-76
2022/05/29 02:01:27;;;;;;;9.27;3.95;;;;;;;9.43;81.55;101717.28;4976656;28;20057;-77
2022/05/29 02:03:56;;;;;;;8.57;4.03;;;;;;;9.41;81.56;101719.03;4982090;28;20367;-77
2022/05/29 02:09:40;;;;;;;10.23;3.75;;;;;;;9.44;80.39;101716.41;4973506;28;20176;-77
2022/05/29 02:12:10;;;;;;;13.13;3.95;;;;;;;9.43;81.08;101711.22;4976716;28;20420;-76
2022/05/29 02:14:39;;;;;;;6.80;3.45;;;;;;;9.42;81.23;101717.28;4972673;28;20051;-76
2022/05/29 02:17:18;;;;;;;13.13;4.20;;;;;;;9.42;80.73;101710.38;4981776;28;20516;-77
2022/05/29 02:19:49;;;;;;;10.80;3.70;;;;;;;9.40;81.14;101712.13;5001739;28;20041;-77
2022/05/29 02:22:23;;;;;;;10.35;3.72;;;;;;;9.37;81.64;101709.53;4972558;28;20057;-77
2022/05/29 02:24:51;;;;;;;12.73;3.90;;;;;;;9.33;80.21;101707.84;4972579;28;20035;-77
2022/05/29 02:27:35;;;;;;;11.27;4.05;;;;;;;9.33;81.34;101707.84;4970986;28;20050;-77
2022/05/29 02:30:02;;;;;;;11.93;4.72;;;;;;;9.34;81.94;101706.13;4979103;28;20445;-77
2022/05/29 02:32:34;;;;;;;11.35;4.30;;;;;;;9.29;81.16;101695.78;4971707;28;20974;-77
2022/05/29 02:35:10;;;;;;;8.48;4.03;;;;;;;9.31;82.04;101696.63;4969583;28;20061;-77
2022/05/29 02:37:49;;;;;;;9.18;4.30;;;;;;;9.31;81.50;101696.63;4986870;28;20462;-77
2022/05/29 02:40:36;;;;;;;10.02;4.40;;;;;;;9.36;81.99;101694.88;4977661;28;20066;-77
2022/05/29 02:43:27;;;;;;;11.43;4.35;;;;;;;9.36;81.26;101688.84;4972428;28;20145;-77
2022/05/29 02:46:12;;;;;;;11.50;4.28;;;;;;;9.36;81.65;101689.69;4978547;28;20067;-77
2022/05/29 02:48:50;;;;;;;11.40;4.32;;;;;;;9.35;81.49;101685.41;4974652;28;20022;-77
2022/05/29 02:51:37;;;;;;;10.32;3.58;;;;;;;9.38;81.71;101680.22;4971644;28;20019;-77
2022/05/29 02:54:02;;;;;;;11.98;3.90;;;;;;;9.36;81.07;101673.31;4967638;28;20035;-77
2022/05/29 02:56:28;;;;;;;13.40;4.30;;;;;;;9.41;82.45;101680.22;4965289;28;20109;-77
2022/05/29 02:58:57;;;;;;;12.10;4.18;;;;;;;9.41;82.13;101671.59;4975111;28;20564;-77
2022/05/29 03:01:47;;;;;;;9.90;3.90;;;;;;;9.46;80.99;101675.00;4977354;28;20043;-77
2022/05/29 03:04:30;;;;;;;13.43;4.00;;;;;;;9.44;81.46;101666.38;4974097;28;20070;-77
2022/05/29 03:07:05;;;;;;;14.45;4.38;;;;;;;9.47;82.43;101675.00;4972098;28;20441;-77
2022/05/29 03:09:41;;;;;;;10.77;3.95;;;;;;;9.49;82.01;101678.41;4969718;28;20122;-77
2022/05/29 03:12:30;;;;;;;9.05;3.70;;;;;;;9.49;81.19;101669.78;4965656;28;20038;-77
2022/05/29 03:15:08;;;;;;;8.80;3.65;;;;;;;9.49;80.42;101669.78;4975652;28;20130;-77
2022/05/29 03:17:45;;;;;;;9.82;3.55;;;;;;;9.52;80.55;101672.38;4970030;28;20033;-77
2022/05/29 03:20:27;;;;;;;14.90;4.85;;;;;;;9.50;79.53;101672.38;4980097;28;20041;-77
2022/05/29 03:23:02;;;;;;;8.32;4.00;;;;;;;9.50;80.23;101669.78;4971291;28;20023;-77
2022/05/29 03:25:37;;;;;;;;;;;;;;;9.56;79.29;101668.03;4968830;28;20118;-77
2022/05/29 03:28:06;;;;;;;11.07;3.50;;;;;;;9.55;80.58;101671.50;4972131;28;20009;-77
2022/05/29 03:30:35;;;;;;;9.65;3.67;;;;;;;9.57;80.95;101667.16;4972970;28;20034;-77
2022/05/29 03:33:06;;;;;;;7.75;3.65;;;;;;;9.57;80.86;101672.34;4975784;28;20350;-77
2022/05/29 03:35:46;;;;;;;14.85;4.13;;;;;;;9.56;81.39;101671.47;4972140;28;20040;-77
2022/05/29 03:38:12;;;;;;;10.95;3.80;;;;;;;9.56;80.26;101675.78;4969038;28;20023;-77
2022/05/29 03:40:39;;;;;;;11.38;3.80;;;;;;;9.59;82.28;101661.13;4968256;28;20062;-77
2022/05/29 03:43:04;;;;;;;9.48;4.20;;;;;;;9.61;83.21;101667.16;4970961;28;20027;-77
2022/05/29 03:45:30;;;;;;;9.60;4.07;;;;;;;9.63;83.00;101665.38;4971503;28;20033;-77
2022/05/29 03:47:56;;;;;;;8.70;3.80;;;;;;;9.64;82.55;101668.84;4971613;28;20105;-77
2022/05/29 03:50:23;;;;;;;12.45;4.20;;;;;;;9.64;83.17;101666.25;4972833;28;20026;-77
2022/05/29 03:52:49;;;;;;;9.48;3.90;;;;;;;9.64;83.73;101663.66;4969691;28;20077;-77
2022/05/29 03:55:16;;;;;;;16.77;4.65;;;;;;;9.64;83.55;101669.69;4964924;28;20027;-78
2022/05/29 03:57:42;;;;;;;10.73;4.38;;;;;;;9.59;84.69;101660.25;4969220;28;20129;-78
2022/05/29 04:00:10;;;;;;;9.18;4.25;;;;;;;9.59;84.53;101668.03;4969624;28;20106;-79
2022/05/29 04:02:35;;;;;;;11.07;4.53;;;;;;;9.55;85.21;101650.81;4969948;28;20445;-79
2022/05/29 04:05:00;;;;;;;11.43;4.00;;;;;;;9.49;85.42;101655.13;4979074;28;20493;-79
2022/05/29 04:12:56;;;;;;;10.88;4.15;;;;;;;9.42;86.50;101656.03;4970784;28;20038;-79
2022/05/29 04:15:21;;;;;;;13.45;4.65;;;;;;;9.43;87.38;101651.72;4967593;28;20049;-79
2022/05/29 04:17:46;;;;;;;11.40;4.20;;;;;;;9.44;86.98;101649.13;4976284;28;20030;-79
2022/05/29 04:20:12;;;;;;;12.10;4.95;;;;;;;9.48;87.71;101650.00;4973215;28;20820;-79
2022/05/29 04:22:37;;;;;;;11.27;4.38;;;;;;;9.49;87.95;101656.84;4969593;28;20077;-79
2022/05/29 04:25:02;;;;;;;10.77;4.23;;;;;;;9.49;87.86;101649.94;4970469;28;20137;-79
2022/05/29 04:27:28;;;;;;;10.52;4.00;;;;;;;9.50;88.06;101656.84;4970789;28;20278;-79
2022/05/29 04:29:53;;;;;;;9.88;4.97;;;;;;;9.50;88.05;101654.25;4972402;28;20093;-79
2022/05/29 04:35:02;;;;;;;9.30;4.15;;;;;;;9.47;87.56;101662.06;4965440;28;20810;-79
2022/05/29 04:37:29;;;;;;;11.32;4.85;;;;;;;9.50;88.90;101661.16;4973588;28;20039;-79
2022/05/29 04:39:54;;;;;;;9.32;4.53;;;;;;;9.49;88.92;101660.31;4969914;28;20613;-79
2022/05/29 04:42:19;;;;;;;10.43;4.30;;;;;;;9.52;89.55;101660.31;4952656;28;20070;-79
2022/05/29 04:44:45;;;;;;;10.13;3.60;;;;;;;9.55;90.21;101658.56;4967633;28;20054;-79
2022/05/29 04:47:10;;;;;;;8.55;3.60;;;;;;;9.53;89.47;101658.56;4971284;28;20556;-79
2022/05/29 04:49:37;;;;;;;12.80;3.80;;;;;;;9.54;89.55;101660.28;4972442;28;20034;-79
2022/05/29 04:52:07;;;;;;;8.82;3.58;;;;;;;9.54;89.88;101646.50;4969979;28;20489;-79
2022/05/29 04:54:40;;;;;;;7.90;3.42;;;;;;;9.51;89.97;101647.34;4974276;28;20051;-79
2022/05/29 04:57:07;;;;;;;7.97;3.70;;;;;;;9.47;90.24;101638.78;4973516;28;20027;-79
2022/05/29 04:59:33;;;;;;;10.63;3.70;;;;;;;9.43;90.77;101644.81;4973867;28;20421;-79
2022/05/29 05:02:01;;;;;;;8.57;3.60;;;;;;;9.40;90.92;101642.25;4972748;28;20273;-79
2022/05/29 05:04:27;;;;;;;10.82;3.92;;;;;;;9.41;92.11;101646.56;4966963;28;20046;-79
2022/05/29 05:06:58;;;;;;;11.57;4.10;;;;;;;9.35;90.79;101644.00;4973952;28;20170;-79
2022/05/29 05:09:24;;;;;;;14.43;3.65;;;;;;;9.35;91.61;101644.00;4973711;28;20054;-79
2022/05/29 05:11:52;;;;;;;8.30;3.72;;;;;;;9.36;92.27;101645.72;4973063;28;20442;-79
2022/05/29 05:14:18;;;;;;;11.27;3.58;;;;;;;9.37;92.51;101641.41;4972825;28;20023;-79
2022/05/29 05:16:43;;;;;;;10.05;4.03;;;;;;;9.38;92.69;101641.41;4971863;28;20475;-79
2022/05/29 05:19:08;;;;;;;10.03;3.73;;;;;;;9.40;92.96;101637.09;4966024;28;20046;-79
2022/05/29 05:21:33;;;;;;;9.27;3.15;;;;;;;9.40;91.85;101628.47;4982410;28;20352;-79
2022/05/29 05:23:59;;;;;;;10.40;3.07;;;;;;;9.41;91.09;101615.53;4966746;28;20397;-78
2022/05/29 05:26:24;;;;;;;6.57;2.65;;;;;;;9.43;89.66;101611.19;4972599;28;20294;-79
2022/05/29 05:28:49;;;;;;;8.32;2.85;;;;;;;9.52;90.26;101612.84;4971476;28;20079;-78
2022/05/29 05:31:14;;;;;;;6.30;2.93;;;;;;;9.57;88.76;101607.63;4973273;28;20027;-79
2022/05/29 05:33:40;;;;;;;5.97;2.60;;;;;;;9.64;90.64;101611.91;4972726;28;20274;-78
2022/05/29 05:36:06;;;;;;;7.32;2.47;;;;;;;9.67;88.96;101607.56;4974667;28;20038;-78
2022/05/29 05:38:31;;;;;;;7.00;2.50;;;;;;;9.72;87.95;101615.28;4967258;28;20027;-79
2022/05/29 05:40:57;;;;;;;4.60;2.53;;;;;;;9.79;89.13;101617.81;4970657;28;20031;-78
2022/05/29 05:43:22;;;;;;;6.32;2.60;;;;;;;9.80;88.31;101616.97;4967334;28;20030;-78
2022/05/29 05:45:48;;;;;;;6.07;3.00;;;;;;;9.84;88.46;101628.13;4981901;28;20035;-78
2022/05/29 05:48:15;;;;;;;6.72;2.90;;;;;;;9.83;89.54;101623.81;4963381;28;20298;-78
2022/05/29 05:50:40;;;;;;;7.78;3.03;;;;;;;9.84;89.59;101622.94;4958999;28;20110;-78
2022/05/29 05:53:05;;;;;;;6.72;3.25;;;;;;;9.84;90.17;101629.00;4968707;28;20113;-78
2022/05/29 05:55:31;;;;;;;9.32;3.22;;;;;;;9.85;90.20;101622.09;4972854;28;20516;-78
2022/05/29 05:57:56;;;;;;;8.50;3.33;;;;;;;9.88;90.45;101628.13;4965079;28;20062;-78
2022/05/29 06:00:23;;;;;;;12.80;4.18;;;;;;;9.87;90.66;101626.41;4967983;28;20023;-78
2022/05/29 06:02:48;;;;;;;10.32;4.28;;;;;;;9.89;90.67;101628.97;4973718;28;20070;-78
2022/05/29 06:05:15;;;;;;;10.82;4.40;;;;;;;9.88;90.77;101624.66;4966114;28;20124;-78
2022/05/29 06:07:41;;;;;;;8.43;4.28;;;;;;;9.91;90.76;101632.38;4961483;28;20043;-78
2022/05/29 06:10:07;;;;;;;10.50;4.15;;;;;;;9.94;91.02;101639.28;4989698;28;20035;-82
2022/05/29 06:12:33;;;;;;;9.07;4.35;;;;;;;9.93;90.60;101632.38;4961612;28;21430;-82
2022/05/29 06:14:58;;;;;;;10.60;4.68;;;;;;;9.87;90.41;101634.16;4966490;28;20393;-81
2022/05/29 06:17:24;;;;;;;9.98;4.43;;;;;;;9.86;90.64;101639.34;4970523;28;20031;-81
2022/05/29 06:19:49;;;;;;;9.57;4.53;;;;;;;9.88;90.91;101632.44;4970260;28;20181;-81
2022/05/29 06:22:14;;;;;;;11.82;4.45;;;;;;;9.94;90.89;101631.53;4971649;28;20031;-81
2022/05/29 06:24:40;;;;;;;11.13;4.70;;;;;;;10.06;91.03;101634.00;4974026;28;20034;-81
2022/05/29 06:27:05;;;;;;;10.98;4.43;;;;;;;10.21;91.15;101626.13;4972598;28;20046;-82
2022/05/29 06:29:31;;;;;;;13.47;4.77;;;;;;;10.41;91.26;101628.50;4966044;28;20030;-81
2022/05/29 06:32:01;;;;;;;13.55;4.65;;;;;;;10.61;91.11;101626.56;4971736;28;20277;-81
2022/05/29 06:34:26;;;;;;;14.73;5.00;;;;;;;10.79;90.98;101626.34;4973975;28;20048;-81
2022/05/29 06:36:52;;;;;;;9.20;4.80;;;;;;;10.90;89.78;101627.09;4972059;28;20418;-81
2022/05/29 06:39:17;;;;;;;11.25;4.72;;;;;;;10.97;88.29;101625.28;4971992;28;20461;-82
2022/05/29 06:41:43;;;;;;;11.82;4.93;;;;;;;10.99;87.06;101620.91;4961246;28;20039;-81
2022/05/29 06:44:09;;;;;;;12.57;5.05;;;;;;;11.01;87.29;101624.34;4970929;28;20054;-81
2022/05/29 06:46:35;;;;;;;8.95;4.70;;;;;;;11.05;87.37;101626.03;4977480;28;20031;-81
2022/05/29 06:49:00;;;;;;;12.98;4.75;;;;;;;11.04;86.71;101629.50;4957068;28;20027;-81
2022/05/29 06:51:26;;;;;;;11.75;5.00;;;;;;;11.09;87.49;101631.16;4979842;28;20094;-81
2022/05/29 06:53:54;;;;;;;12.30;4.97;;;;;;;11.11;88.81;101631.13;4971801;28;20015;-81
2022/05/29 06:56:20;;;;;;;13.70;4.63;;;;;;;11.11;88.53;101631.13;4970266;28;20481;-82
2022/05/29 06:58:46;;;;;;;13.60;5.05;;;;;;;11.13;89.22;101629.34;4967448;28;20054;-81
2022/05/29 07:07:01;;;;;;;11.65;4.60;;;;;;;11.20;88.62;101624.94;4971387;28;20121;-81
2022/05/29 07:09:29;;;;;;;10.23;5.28;;;;;;;11.27;88.94;101627.44;4971601;28;20030;-81
2022/05/29 07:12:08;;;;;;;12.10;5.35;;;;;;;11.33;87.89;101627.34;4971589;28;20030;-81
2022/05/29 07:14:53;;;;;;;8.80;4.95;;;;;;;11.37;86.67;101622.97;4971485;28;20444;-81
2022/05/29 07:17:19;;;;;;;11.88;5.30;;;;;;;11.39;86.76;101629.88;4971987;28;20329;-81
2022/05/29 07:19:44;;;;;;;12.38;5.10;;;;;;;11.41;88.41;101630.69;4968823;28;20057;-81
2022/05/29 07:22:11;;;;;;;11.60;5.10;;;;;;;11.51;88.68;101628.84;4977933;28;20039;-82
2022/05/29 07:24:38;;;;;;;12.98;5.30;;;;;;;11.60;88.44;101617.47;4971211;28;20394;-83
2022/05/29 07:27:04;;;;;;;13.10;5.38;;;;;;;11.79;88.70;101619.78;4974554;28;20188;-83
2022/05/29 07:29:30;;;;;;;11.98;5.13;;;;;;;11.93;86.91;101623.88;4974630;28;20486;-82
2022/05/29 07:31:55;;;;;;;14.32;5.78;;;;;;;12.05;89.12;101605.47;4969730;28;20018;-82
2022/05/29 07:34:21;;;;;;;11.07;5.20;;;;;;;12.28;87.61;101613.72;4964435;28;20031;-82
2022/05/29 07:36:49;;;;;;;12.30;5.80;;;;;;;12.40;85.96;101612.63;4972956;28;20031;-82
2022/05/29 07:39:15;;;;;;;12.68;4.90;;;;;;;12.43;85.15;101609.97;4970705;28;20030;-83
2022/05/29 07:44:24;;;;;;;13.47;5.40;;;;;;;12.65;87.78;101612.13;4977377;28;20469;-83
2022/05/29 07:46:49;;;;;;;15.43;5.22;;;;;;;12.82;85.43;101608.34;4969693;28;20023;-83
2022/05/29 07:49:15;;;;;;;15.37;5.70;;;;;;;13.66;88.00;101610.78;4969472;28;20508;-83
2022/05/29 07:51:40;;;;;;;13.68;4.97;;;;;;;15.03;81.53;101604.50;4966762;28;20300;-84
2022/05/29 07:54:05;;;;;;;8.32;4.07;;;;;;;15.96;75.21;101609.41;4964489;28;20022;-84
2022/05/29 07:56:31;;;;;;;11.45;3.95;;;;;;;15.93;71.71;101606.88;4969679;28;20050;-84
2022/05/29 07:58:56;;;;;;;8.43;4.05;;;;;;;15.72;75.75;101605.81;4976543;28;20054;-83
2022/05/29 08:01:22;;;;;;;8.48;4.10;;;;;;;15.79;73.34;101602.97;4970576;28;20105;-84
2022/05/29 08:03:48;;;;;;;9.75;4.32;;;;;;;15.57;72.75;101601.94;4975348;28;20109;-83
2022/05/29 08:06:14;;;;;;;13.07;4.50;;;;;;;15.63;73.83;101596.53;4971022;28;20113;-84
2022/05/29 08:08:40;;;;;;;10.65;4.07;;;;;;;15.76;71.46;101599.63;4969362;28;20436;-83
2022/05/29 08:11:07;;;;;;;11.48;3.90;;;;;;;15.48;71.75;101601.38;4972963;28;20681;-83
2022/05/29 08:13:35;;;;;;;10.88;3.90;;;;;;;15.22;74.30;101600.41;4970507;28;20456;-83
2022/05/29 08:16:01;;;;;;;9.32;4.07;;;;;;;15.29;77.32;101595.84;4970486;28;20027;-83
2022/05/29 08:18:26;;;;;;;10.13;4.05;;;;;;;15.24;76.64;101592.53;4968583;28;20400;-83
2022/05/29 08:20:52;;;;;;;8.50;4.20;;;;;;;15.06;73.04;101593.09;4967205;28;20141;-83
2022/05/29 08:23:18;;;;;;;9.18;4.43;;;;;;;14.97;76.54;101594.22;4969421;28;20065;-83
2022/05/29 08:31:12;;;;;;;10.85;4.10;;;;;;;14.30;74.64;101598.72;4970424;28;20045;-83
2022/05/29 08:33:38;;;;;;;12.43;4.07;;;;;;;14.02;72.83;101593.38;4963470;28;20030;-83
2022/05/29 08:36:14;;;;;;;12.25;4.70;;;;;;;13.91;76.19;101591.94;4973810;28;20101;-82
2022/05/29 08:38:42;;;;;;;8.73;4.18;;;;;;;13.77;77.32;101590.56;4990047;28;20023;-82
2022/05/29 08:41:14;;;;;;;10.80;4.53;;;;;;;13.65;79.70;101589.97;4970131;28;20057;-82
2022/05/29 08:44:06;;;;;;;10.85;4.10;;;;;;;13.55;79.38;101591.09;4969358;28;20134;-82
2022/05/29 08:46:44;;;;;;;7.32;4.03;;;;;;;13.50;76.52;101590.38;4970269;28;20450;-83
2022/05/29 08:49:15;;;;;;;9.85;3.95;;;;;;;13.42;76.87;101588.78;4966760;28;20030;-83
2022/05/29 08:51:46;;;;;;;13.85;4.50;;;;;;;13.53;79.53;101583.31;4975544;28;20033;-83
2022/05/29 08:54:33;;;;;;;12.63;4.22;;;;;;;13.73;77.96;101578.47;4970649;28;20481;-82
2022/05/29 08:57:25;;;;;;;7.35;2.90;;;;;;;14.00;74.57;101582.13;4969008;28;20113;-83
2022/05/29 08:59:56;;;;;;;10.77;3.05;;;;;;;14.17;74.34;101579.09;4961300;28;20506;-82
2022/05/29 09:02:47;;;;;;;8.18;3.25;;;;;;;14.33;74.17;101575.16;4971752;28;20545;-82
2022/05/29 09:05:52;;;;;;;9.55;3.03;;;;;;;14.59;76.12;101572.72;4964953;28;20229;-83
2022/05/29 09:08:26;;;;;;;7.65;3.25;;;;;;;14.87;76.18;101562.34;4942922;28;20019;-84
2022/05/29 09:10:56;;;;;;;8.30;3.40;;;;;;;15.34;76.37;101567.84;4962104;28;20258;-84
2022/05/29 09:13:35;;;;;;;9.70;3.67;;;;;;;15.87;69.64;101563.50;4979773;28;20033;-83
2022/05/29 09:16:08;;;;;;;8.55;3.70;;;;;;;16.16;71.25;101555.50;4978480;28;20026;-83
2022/05/29 09:18:38;;;;;;;8.45;3.10;;;;;;;16.50;70.22;101549.91;4968919;28;20282;-84
2022/05/29 09:21:05;;;;;;;6.55;3.13;;;;;;;16.87;72.84;101548.53;4971498;28;20061;-84
2022/05/29 09:23:35;;;;;;;7.88;2.97;;;;;;;16.97;68.97;101555.13;4969612;28;20078;-83
2022/05/29 09:26:06;;;;;;;9.45;2.80;;;;;;;16.83;65.08;101546.97;4968146;28;20791;-83
2022/05/29 09:28:38;;;;;;;9.90;3.90;;;;;;;16.73;64.92;101546.44;4963810;28;20038;-83
2022/05/29 09:31:13;;;;;;;9.05;2.88;;;;;;;16.91;67.61;101537.03;4977114;28;20042;-83
2022/05/29 09:33:39;;;;;;;7.40;2.75;;;;;;;16.97;62.71;101540.28;4973531;28;20050;-90
2022/05/29 09:36:08;;;;;;;5.25;1.90;;;;;;;16.92;61.10;101541.38;4968664;28;20536;-83
2022/05/29 09:38:42;;;;;;;6.22;1.90;;;;;;;16.60;60.27;101534.72;4969182;28;20026;-84
2022/05/29 09:41:17;;;;;;;7.65;2.00;;;;;;;16.27;59.81;101528.09;4971485;28;20133;-83
2022/05/29 09:44:11;;;;;;;7.85;2.10;;;;;;;16.05;60.89;101531.47;4970349;28;20049;-83
2022/05/29 09:46:40;;;;;;;7.07;2.03;;;;;;;16.23;63.09;101523.91;4977438;28;20117;-83
2022/05/29 09:52:05;;;;;;;6.47;2.17;;;;;;;16.19;63.44;101523.13;4962984;28;20045;-79
2022/05/29 09:54:35;;;;;;;6.28;2.58;;;;;;;15.94;60.26;101528.38;4967695;28;20066;-79
2022/05/29 09:57:36;;;;;;;6.40;2.47;;;;;;;16.05;60.72;101520.16;4964369;28;20051;-79
2022/05/29 10:00:09;;;;;;;7.50;2.65;;;;;;;16.44;62.70;101517.88;4959467;28;20049;-79
2022/05/29 10:02:40;;;;;;;8.00;2.67;;;;;;;16.56;60.08;101512.19;4964259;28;20050;-79
2022/05/29 10:05:08;;;;;;;7.03;2.42;;;;;;;16.29;61.65;101513.19;4972136;28;20034;-79
2022/05/29 10:07:44;;;;;;;5.63;2.30;;;;;;;15.96;59.42;101516.13;4970874;28;20049;-79
2022/05/29 10:10:12;;;;;;;7.60;2.72;;;;;;;15.63;62.98;101536.41;4972533;28;20085;-79
2022/05/29 10:12:40;;;;;;;7.97;2.33;;;;;;;15.16;65.84;101545.75;4972511;28;20117;-80
2022/05/29 10:15:13;;;;;;;3.03;1.45;;;;;;;14.67;70.17;101553.38;4971307;28;20126;-81
2022/05/29 10:17:40;;;;;;;2.07;1.00;;;;;;;14.22;73.59;101559.81;5010603;28;20034;-81
2022/05/29 10:20:33;;;;;;;2.20;1.00;;;;;;;13.68;74.32;101549.09;4972370;28;20027;-80
2022/05/29 10:23:06;;;;;;;1.20;1.00;;;;;;;13.24;76.63;101546.69;4971095;28;20027;-80
2022/05/29 10:25:35;;;;;;;1.70;1.00;;;;;;;12.96;78.18;101542.09;4972710;28;20422;-80
2022/05/29 10:28:09;;;;;;;2.42;0.98;;;;;;;12.74;80.43;101551.25;4972157;28;20502;-80
2022/05/29 10:30:43;;;;;;;3.85;1.30;;;;;;;12.47;79.84;101557.88;4974803;28;20081;-80
2022/05/29 10:33:22;;;;;;;2.45;1.50;;;;;;;12.24;81.62;101557.47;4972408;28;20463;-80
2022/05/29 10:35:49;;;;;;;6.35;1.20;;;;;;;11.93;80.66;101553.72;4972398;28;20023;-80
2022/05/29 10:38:22;;;;;;;1.60;0.90;;;;;;;11.60;81.15;101549.94;4971853;28;20043;-80
2022/05/29 10:40:50;;;;;;;2.83;0.95;;;;;;;11.37;84.07;101556.34;4972148;28;20019;-79
2022/05/29 10:43:37;;;;;;;4.18;0.95;;;;;;;11.30;83.81;101549.53;4970354;28;20042;-80
2022/05/29 10:46:23;;;;;;;1.88;0.90;;;;;;;11.36;84.67;101556.38;4972278;28;20049;-80
2022/05/29 10:48:54;;;;;;;2.40;0.85;;;;;;;11.37;83.59;101548.56;4963419;28;20027;-80
2022/05/29 10:51:28;;;;;;;3.50;1.00;;;;;;;11.44;82.85;101551.94;4971287;28;20403;-80
2022/05/29 10:54:15;;;;;;;1.30;1.20;;;;;;;11.59;84.00;101543.91;4970315;28;20097;-80
2022/05/29 10:57:02;;;;;;;2.35;0.95;;;;;;;11.78;82.07;101541.88;4970452;28;20034;-80
2022/05/29 11:00:01;;;;;;;2.55;1.20;;;;;;;11.95;84.20;101533.75;4977739;28;20061;-80
2022/05/29 11:05:36;;;;;;;2.58;1.10;;;;;;;12.40;84.36;101525.09;4971681;28;20518;-80
2022/05/29 11:08:08;;;;;;;3.25;1.10;;;;;;;12.63;83.58;101528.06;4971740;28;20061;-80
2022/05/29 11:10:50;;;;;;;2.65;1.30;;;;;;;12.83;81.75;101527.63;4971755;28;20345;-79
2022/05/29 11:13:38;;;;;;;2.67;1.40;;;;;;;13.05;81.49;101522.78;4971532;28;20049;-80
2022/05/29 11:16:19;;;;;;;2.72;1.50;;;;;;;13.26;81.58;101527.53;4953798;28;20042;-80
2022/05/29 11:19:11;;;;;;;4.05;1.50;;;;;;;13.68;80.83;101523.03;4971701;28;20026;-80
2022/05/29 11:21:54;;;;;;;4.18;1.30;;;;;;;14.05;76.60;101514.25;4974934;28;20393;-80
2022/05/29 11:24:22;;;;;;;3.80;1.52;;;;;;;14.23;76.35;101517.19;4973179;28;20042;-80
2022/05/29 11:27:07;;;;;;;2.85;1.40;;;;;;;14.47;76.20;101518.25;4969993;28;20050;-80
2022/05/29 11:30:00;;;;;;;2.67;1.38;;;;;;;14.62;75.78;101516.97;4970965;28;20109;-80
2022/05/29 11:32:43;;;;;;;2.78;1.42;;;;;;;14.77;75.47;101508.69;4969474;28;20031;-80
2022/05/29 11:35:31;;;;;;;3.35;1.88;;;;;;;15.09;73.16;101509.44;4969802;28;20019;-81
2022/05/29 11:38:27;;;;;;;3.25;1.90;;;;;;;15.33;72.46;101508.66;4980001;28;20446;-80
2022/05/29 11:41:01;;;;;;;4.15;1.80;;;;;;;14.92;71.01;101512.59;4982967;28;20031;-81
2022/05/29 11:44:07;;;;;;;3.88;1.70;;;;;;;14.44;73.68;101520.97;4970948;28;20022;-80
2022/05/29 11:52:32;;;;;;;3.03;1.20;;;;;;;13.04;81.59;101519.34;4982742;28;20058;-80
2022/05/29 11:55:09;;;;;;;1.58;0.95;;;;;;;12.87;83.13;101520.63;4970859;28;20261;-80
2022/05/29 11:57:48;;;;;;;2.13;1.00;;;;;;;12.82;83.07;101515.53;4969998;28;20053;-80
2022/05/29 12:00:57;;;;;;;3.15;1.25;;;;;;;12.80;82.27;101512.09;4970802;28;20046;-80
2022/05/29 12:03:53;;;;;;;2.08;1.10;;;;;;;12.86;83.81;101505.91;4967712;28;20049;-80
2022/05/29 12:06:21;;;;;;;2.60;1.20;;;;;;;12.98;85.16;101509.06;4981506;28;20033;-80
2022/05/29 12:09:11;;;;;;;1.63;1.00;;;;;;;13.12;84.82;101497.47;4974536;28;20040;-80
2022/05/29 12:11:55;;;;;;;2.72;1.23;;;;;;;13.29;85.47;101493.63;4970620;28;20092;-80
2022/05/29 12:14:41;;;;;;;3.28;1.13;;;;;;;13.51;82.96;101493.09;4970532;28;20031;-80
2022/05/29 12:17:17;;;;;;;2.30;1.48;;;;;;;13.59;81.45;101494.59;4970357;28;20409;-80
2022/05/29 12:20:01;;;;;;;5.20;1.70;;;;;;;13.62;80.49;101491.06;4971029;28;20163;-80
2022/05/29 12:22:38;;;;;;;4.68;1.88;;;;;;;13.55;81.82;101498.19;4973302;28;20034;-80
2022/05/29 12:25:18;;;;;;;3.28;1.70;;;;;;;13.39;82.95;101491.63;4970003;28;20474;-80
2022/05/29 12:27:45;;;;;;;5.22;2.42;;;;;;;13.21;82.94;101502.50;4968850;28;20085;-79